»·PEaware :: WAT605 KLAS-KLAX

WAT605 :: KLAS-KLAX

FLIGHT INFORMATION

Flight Status: Arrived
Operator:
Walker Air Transport
More flights by this operator :: More flights under this callsign
Pilot: Kaleb W. (11686)
Aircraft: AIRBUS A320
(A320)
More flights by this aircraft type
Origin: KLAS McCarran Intl
United States
Destination: KLAX Los Angeles Intl
United States
More flights between these airports :: More routes between these airports
Route: RADYR1 BLAQQ SHTNR ANJLL4
File this flight plan on PilotEdge
Remarks: RMK / SIMBRIEF
Altitude:
(Current/Filed)
28,000ft
Speed:
(Current/Filed)
446kts
Departed: 08-Mar-21 06:17 PM
Arrived: 08-Mar-21 07:21 PM
Distance/Time
Traveled:
205nm/1:04
Distance/Time
To Go:
Arrived

Flight Plot

Page will automatically refresh every two minutes.

Flight plan parsing failed; only flown route is shown


Map Options




Map Legend


Flown Route
Filed Route
Departure Airport
Arrival Airport
Navaid (VOR, NDB)
Fix

Horizontal Profiles

Position Reports

Time Latitude Longitude Heading Altitude Ground
Speed
08-Mar-21 17:38 36.080197 -115.139350 316 2073ft 0kts
08-Mar-21 17:39 36.080197 -115.139350 316 2073ft 0kts
08-Mar-21 17:40 36.080197 -115.139350 316 2073ft 0kts
08-Mar-21 17:41 36.080197 -115.139350 316 2073ft 0kts
08-Mar-21 17:42 36.080197 -115.139350 316 2073ft 0kts
08-Mar-21 17:43 36.080197 -115.139350 316 2073ft 0kts
08-Mar-21 17:44 36.080197 -115.139350 316 2073ft 0kts
08-Mar-21 17:45 36.080197 -115.139350 316 2073ft 0kts
08-Mar-21 17:46 36.080197 -115.139350 316 2073ft 0kts
08-Mar-21 17:47 36.080197 -115.139350 316 2073ft 0kts
08-Mar-21 17:48 36.080197 -115.139350 316 2073ft 0kts
08-Mar-21 17:49 36.080197 -115.139350 316 2073ft 0kts
08-Mar-21 17:50 36.080197 -115.139350 316 2073ft 0kts
08-Mar-21 17:51 36.080197 -115.139350 316 2073ft 0kts
08-Mar-21 17:52 36.080197 -115.139350 316 2073ft 0kts
08-Mar-21 17:53 36.080197 -115.139350 316 2073ft 0kts
08-Mar-21 17:54 36.080197 -115.139350 316 2073ft 0kts
08-Mar-21 17:55 36.080197 -115.139350 316 2073ft 0kts
08-Mar-21 17:56 36.080197 -115.139350 316 2073ft 0kts
08-Mar-21 17:57 36.080148 -115.139259 289 2073ft 2kts
08-Mar-21 17:58 36.079693 -115.138846 354 2073ft 2kts
08-Mar-21 17:59 36.079276 -115.139050 47 2075ft 0kts
08-Mar-21 18:00 36.079276 -115.139050 47 2075ft 0kts
08-Mar-21 18:01 36.079276 -115.139050 47 2075ft 0kts
08-Mar-21 18:02 36.079677 -115.138513 47 2072ft 11kts
08-Mar-21 18:03 36.079230 -115.136201 137 2067ft 9kts
08-Mar-21 18:04 36.077534 -115.132999 96 2060ft 17kts
08-Mar-21 18:05 36.077542 -115.124656 90 2041ft 30kts
08-Mar-21 18:06 36.077437 -115.121514 127 2038ft 0kts
08-Mar-21 18:07 36.077437 -115.121514 127 2038ft 0kts
08-Mar-21 18:08 36.077437 -115.121514 127 2038ft 0kts
08-Mar-21 18:09 36.077420 -115.121488 129 2038ft 1kts
08-Mar-21 18:10 36.077190 -115.121287 161 2038ft 0kts
08-Mar-21 18:11 36.077190 -115.121288 161 2038ft 0kts
08-Mar-21 18:12 36.077190 -115.121287 161 2038ft 0kts
08-Mar-21 18:13 36.077190 -115.121288 161 2038ft 0kts
08-Mar-21 18:14 36.077190 -115.121288 161 2038ft 0kts
08-Mar-21 18:15 36.076357 -115.122582 271 2040ft 34kts
08-Mar-21 18:16 36.078152 -115.171453 271 3994ft 179kts
08-Mar-21 18:17 36.071370 -115.241528 246 6915ft 236kts
08-Mar-21 18:18 36.013640 -115.285054 202 10109ft 274kts
08-Mar-21 18:19 35.930594 -115.309509 194 12274ft 341kts
08-Mar-21 18:20 35.835788 -115.332514 195 15368ft 353kts
08-Mar-21 18:21 35.738428 -115.356305 195 18078ft 364kts
08-Mar-21 18:22 35.638964 -115.380586 196 19075ft 364kts
08-Mar-21 18:23 35.534489 -115.382521 182 21037ft 386kts
08-Mar-21 18:24 35.427843 -115.386063 204 23087ft 381kts
08-Mar-21 18:25 35.333240 -115.445125 211 24938ft 386kts
08-Mar-21 18:26 35.236813 -115.506583 211 26618ft 394kts
08-Mar-21 18:27 35.139343 -115.569415 215 28018ft 397kts
08-Mar-21 18:28 35.059896 -115.660859 227 28127ft 395kts
08-Mar-21 18:29 34.984012 -115.757668 227 28136ft 391kts
08-Mar-21 18:30 34.909510 -115.852465 228 28126ft 384kts
08-Mar-21 18:31 34.835968 -115.945818 228 28119ft 380kts
08-Mar-21 18:32 34.762559 -116.038822 228 28112ft 380kts
08-Mar-21 18:33 34.689351 -116.132147 228 28133ft 382kts
08-Mar-21 18:34 34.616192 -116.225097 229 28152ft 382kts
08-Mar-21 18:35 34.542558 -116.318388 229 28164ft 383kts
08-Mar-21 18:36 34.468890 -116.411464 229 28158ft 383kts
08-Mar-21 18:37 34.402937 -116.510977 243 28143ft 381kts
08-Mar-21 18:38 34.355696 -116.625705 243 28115ft 380kts
08-Mar-21 18:39 34.309025 -116.740270 243 28124ft 380kts
08-Mar-21 18:40 34.264501 -116.850841 243 27080ft 348kts
08-Mar-21 18:41 34.222843 -116.953975 243 24099ft 339kts
08-Mar-21 18:42 34.190821 -117.058308 251 22145ft 324kts
08-Mar-21 18:43 34.163489 -117.159062 252 20286ft 310kts
08-Mar-21 18:44 34.136790 -117.256110 252 18487ft 298kts
08-Mar-21 18:45 34.111086 -117.349272 252 16748ft 287kts
08-Mar-21 18:46 34.087764 -117.439859 254 15077ft 278kts
08-Mar-21 18:47 34.063202 -117.527081 249 13475ft 272kts
08-Mar-21 18:48 34.034015 -117.610970 249 11917ft 270kts
08-Mar-21 18:49 34.007791 -117.695114 263 10372ft 268kts
08-Mar-21 18:50 33.999584 -117.780762 262 9334ft 251kts
08-Mar-21 18:51 33.991458 -117.864078 262 8026ft 249kts
08-Mar-21 18:52 33.983604 -117.946977 265 6721ft 247kts
08-Mar-21 18:53 33.976669 -118.028626 262 5448ft 242kts
08-Mar-21 18:54 33.968077 -118.106684 263 4584ft 226kts
08-Mar-21 18:55 33.960374 -118.181561 262 3366ft 220kts
08-Mar-21 18:56 33.953140 -118.251109 262 2265ft 207kts
08-Mar-21 18:57 33.946039 -118.319867 262 1158ft 198kts
08-Mar-21 18:58 33.939318 -118.384147 261 1902ft 188kts
08-Mar-21 18:59 33.933144 -118.447153 262 2013ft 190kts
08-Mar-21 19:00 33.926610 -118.509905 257 2066ft 186kts
08-Mar-21 19:01 33.880378 -118.527909 182 4528ft 203kts
08-Mar-21 19:02 33.823287 -118.524477 182 4998ft 207kts
08-Mar-21 19:03 33.765238 -118.520596 168 4994ft 214kts
08-Mar-21 19:04 33.739459 -118.455797 102 5000ft 230kts
08-Mar-21 19:05 33.727402 -118.380039 102 5001ft 231kts
08-Mar-21 19:06 33.729147 -118.304333 72 4997ft 232kts
08-Mar-21 19:07 33.748015 -118.230087 72 4995ft 232kts
08-Mar-21 19:08 33.767301 -118.155838 72 4992ft 232kts
08-Mar-21 19:09 33.799751 -118.094338 14 4994ft 224kts
08-Mar-21 19:10 33.858861 -118.073078 12 4985ft 221kts
08-Mar-21 19:11 33.916129 -118.052406 12 3736ft 212kts
08-Mar-21 19:12 33.968435 -118.056095 294 2494ft 199kts
08-Mar-21 19:13 33.966696 -118.120632 262 2461ft 190kts
08-Mar-21 19:14 33.960447 -118.180702 262 2219ft 147kts
08-Mar-21 19:15 33.956063 -118.222961 262 2209ft 124kts
08-Mar-21 19:17 33.951792 -118.264156 261 1960ft 123kts
08-Mar-21 19:18 33.947560 -118.305140 261 1393ft 122kts
08-Mar-21 19:19 33.943369 -118.345839 261 742ft 122kts
08-Mar-21 19:20 33.939266 -118.386168 262 123ft 114kts
08-Mar-21 19:21 33.938311 -118.402409 304 121ft 13kts
08-Mar-21 19:22 33.939516 -118.402997 351 121ft 15kts
08-Mar-21 19:23 33.940735 -118.403765 234 121ft 1kts

Navigation Log

Ident Type
Flight plan parsing failed, navigation log unavailable